createdAt,value
2022-09-28T00:02:25.700Z,7.38
2022-09-28T00:04:56.330Z,6.65
2022-09-28T00:07:25.439Z,7.60
2022-09-28T00:09:54.531Z,7.68
2022-09-28T00:12:24.336Z,8.48
2022-09-28T00:14:54.059Z,7.63
2022-09-28T00:17:24.039Z,7.40
2022-09-28T00:19:53.188Z,6.97
2022-09-28T00:22:23.796Z,7.85
2022-09-28T00:24:52.875Z,7.97
2022-09-28T00:27:22.001Z,6.70
2022-09-28T00:29:52.138Z,7.13
2022-09-28T00:32:24.579Z,7.18
2022-09-28T00:34:53.944Z,6.97
2022-09-28T00:37:24.543Z,7.43
2022-09-28T00:39:53.748Z,6.53
2022-09-28T00:42:25.490Z,7.60
2022-09-28T00:44:55.132Z,6.80
2022-09-28T00:47:39.632Z,9.23
2022-09-28T00:50:18.326Z,14.43
2022-09-28T00:52:54.593Z,17.00
2022-09-28T00:55:32.589Z,19.95
2022-09-28T00:58:05.319Z,18.80
2022-09-28T01:00:34.650Z,20.65
2022-09-28T01:03:05.972Z,15.23
2022-09-28T01:05:36.231Z,16.08
2022-09-28T01:08:08.680Z,17.55
2022-09-28T01:10:37.793Z,16.15
2022-09-28T01:13:06.881Z,13.60
2022-09-28T01:15:47.901Z,11.73
2022-09-28T01:18:27.911Z,11.75
2022-09-28T01:21:02.805Z,11.45
2022-09-28T01:23:58.891Z,11.50
2022-09-28T01:27:10.892Z,11.65
2022-09-28T01:29:49.273Z,10.90
2022-09-28T01:32:36.067Z,8.90
2022-09-28T01:35:10.082Z,7.97
2022-09-28T01:37:48.989Z,8.38
2022-09-28T01:40:22.762Z,6.85
2022-09-28T01:42:59.757Z,6.65
2022-09-28T01:45:33.972Z,6.40
2022-09-28T01:48:07.821Z,5.30
2022-09-28T01:50:43.038Z,4.80
2022-09-28T01:53:20.461Z,5.50
2022-09-28T01:55:56.058Z,5.28
2022-09-28T01:58:34.440Z,4.97
2022-09-28T02:01:10.425Z,5.50
2022-09-28T02:03:47.507Z,7.45
2022-09-28T02:06:23.570Z,7.53
2022-09-28T02:08:57.839Z,9.70
2022-09-28T02:11:37.494Z,12.25
2022-09-28T02:14:12.839Z,12.48
2022-09-28T02:16:45.917Z,12.07
2022-09-28T02:19:18.791Z,11.75
2022-09-28T02:21:59.701Z,12.38
2022-09-28T02:24:36.640Z,12.48
2022-09-28T02:27:13.853Z,12.57
2022-09-28T02:29:45.306Z,12.10
2022-09-28T02:32:14.641Z,13.57
2022-09-28T02:34:45.832Z,11.60
2022-09-28T02:37:15.004Z,10.05
2022-09-28T02:39:44.060Z,10.77
2022-09-28T02:42:21.312Z,10.63
2022-09-28T02:45:09.377Z,8.98
2022-09-28T02:50:38.038Z,7.30
2022-09-28T02:53:58.781Z,8.32
2022-09-28T02:57:06.360Z,8.00
2022-09-28T02:59:50.611Z,7.35
2022-09-28T03:02:29.946Z,7.03
2022-09-28T03:05:13.448Z,5.90
2022-09-28T03:07:52.328Z,7.03
2022-09-28T03:10:33.061Z,4.75
2022-09-28T03:13:03.376Z,5.22
2022-09-28T03:15:35.666Z,4.65
2022-09-28T03:18:06.304Z,4.85
2022-09-28T03:20:36.241Z,4.50
2022-09-28T03:23:23.794Z,4.72
2022-09-28T03:25:53.790Z,3.65
2022-09-28T03:28:23.337Z,3.47
2022-09-28T03:30:53.183Z,3.28
2022-09-28T03:33:24.408Z,4.18
2022-09-28T03:35:53.568Z,3.70
2022-09-28T03:38:22.969Z,3.97
2022-09-28T03:40:55.976Z,5.10
2022-09-28T03:43:28.476Z,4.95
2022-09-28T03:46:01.949Z,4.75
2022-09-28T03:48:37.375Z,4.60
2022-09-28T03:51:09.599Z,5.72
2022-09-28T03:53:39.269Z,5.15
2022-09-28T03:56:13.608Z,7.35
2022-09-28T03:58:43.948Z,9.40
2022-09-28T04:01:17.833Z,8.95
2022-09-28T04:03:55.971Z,11.18
2022-09-28T04:06:26.625Z,9.35
2022-09-28T04:08:56.016Z,12.98
2022-09-28T04:11:25.501Z,16.20
2022-09-28T04:13:54.560Z,16.90
2022-09-28T04:16:24.965Z,17.77
2022-09-28T04:19:09.857Z,18.58
2022-09-28T04:22:00.795Z,15.18
2022-09-28T04:24:29.889Z,17.33
2022-09-28T04:27:18.948Z,12.27
2022-09-28T04:29:48.924Z,12.43
2022-09-28T04:32:18.829Z,12.70
2022-09-28T04:34:49.597Z,10.40
2022-09-28T04:37:18.921Z,8.40
2022-09-28T04:39:50.845Z,8.15
2022-09-28T04:42:21.694Z,8.25
2022-09-28T04:44:52.696Z,8.00
2022-09-28T04:47:21.989Z,6.35
2022-09-28T04:50:11.010Z,7.05
2022-09-28T04:53:02.324Z,6.43
2022-09-28T04:55:34.808Z,6.28
2022-09-28T04:58:05.885Z,4.97
2022-09-28T05:00:35.961Z,5.18
2022-09-28T05:03:28.525Z,4.32
2022-09-28T05:06:19.296Z,4.90
2022-09-28T05:08:50.171Z,5.30
2022-09-28T05:11:21.603Z,5.72
2022-09-28T05:13:50.744Z,5.53
2022-09-28T05:16:21.767Z,7.30
2022-09-28T05:19:09.669Z,6.63
2022-09-28T05:21:40.792Z,6.97
2022-09-28T05:24:09.900Z,7.60
2022-09-28T05:26:40.292Z,9.25
2022-09-28T05:29:11.871Z,7.15
2022-09-28T05:31:45.404Z,6.55
2022-09-28T05:34:37.491Z,6.60
2022-09-28T05:37:08.592Z,7.43
2022-09-28T05:39:37.705Z,7.50
2022-09-28T05:42:08.037Z,8.55
2022-09-28T05:44:38.532Z,8.70
2022-09-28T05:47:07.993Z,9.75
2022-09-28T05:49:37.113Z,7.75
2022-09-28T05:52:06.393Z,7.50
2022-09-28T05:54:40.869Z,7.63
2022-09-28T05:57:10.046Z,7.53
2022-09-28T05:59:39.310Z,6.53
2022-09-28T06:02:08.722Z,5.97
2022-09-28T06:04:38.210Z,6.00
2022-09-28T06:07:07.674Z,6.78
2022-09-28T06:09:39.006Z,5.93
2022-09-28T06:12:21.015Z,6.45
2022-09-28T06:14:52.130Z,6.53
2022-09-28T06:17:21.526Z,6.32
2022-09-28T06:20:11.800Z,6.72
2022-09-28T06:23:09.957Z,6.70
2022-09-28T06:25:39.639Z,7.63
2022-09-28T06:28:13.054Z,7.32
2022-09-28T06:30:43.894Z,8.02
2022-09-28T06:33:16.913Z,7.07
2022-09-28T06:35:49.022Z,7.70
2022-09-28T06:38:18.451Z,6.95
2022-09-28T06:40:50.093Z,6.85
2022-09-28T06:43:23.323Z,6.88
2022-09-28T06:46:31.525Z,7.18
2022-09-28T06:49:00.603Z,6.82
2022-09-28T06:51:55.098Z,6.78
2022-09-28T06:54:35.920Z,6.70
2022-09-28T06:57:15.772Z,6.40
2022-09-28T06:59:46.432Z,6.90
2022-09-28T07:02:15.601Z,7.47
2022-09-28T07:04:44.919Z,7.35
2022-09-28T07:07:14.220Z,7.60
2022-09-28T07:09:50.289Z,7.53
2022-09-28T07:12:34.887Z,7.55
2022-09-28T07:15:09.560Z,7.30
2022-09-28T07:17:51.614Z,7.15
2022-09-28T07:20:25.132Z,8.30
2022-09-28T07:23:01.745Z,8.02
2022-09-28T07:25:58.137Z,7.63
2022-09-28T07:28:34.280Z,7.45
2022-09-28T07:31:21.510Z,8.15
2022-09-28T07:34:11.441Z,7.57
2022-09-28T07:37:11.035Z,7.00
2022-09-28T07:40:00.271Z,6.65
2022-09-28T07:42:32.108Z,7.30
2022-09-28T07:45:01.382Z,6.45
2022-09-28T07:47:35.108Z,6.07
2022-09-28T07:50:22.912Z,5.25
2022-09-28T07:53:05.829Z,5.35
2022-09-28T07:55:54.472Z,5.40
2022-09-28T07:58:39.091Z,5.15
2022-09-28T08:01:31.015Z,4.30
2022-09-28T08:04:03.164Z,4.78
2022-09-28T08:06:32.609Z,5.07
2022-09-28T08:09:05.537Z,4.75
2022-09-28T08:11:59.690Z,5.15
2022-09-28T08:14:49.211Z,5.18
2022-09-28T08:17:31.541Z,5.25
2022-09-28T08:20:21.653Z,5.35
2022-09-28T08:22:51.071Z,5.13
2022-09-28T08:25:20.850Z,5.40
2022-09-28T08:27:50.282Z,5.88
2022-09-28T08:30:20.076Z,5.63
2022-09-28T08:32:55.321Z,5.60
2022-09-28T08:35:44.673Z,5.40
2022-09-28T08:38:16.564Z,5.10
2022-09-28T08:41:44.876Z,5.38
2022-09-28T08:44:44.744Z,5.45
2022-09-28T08:48:09.645Z,5.00
2022-09-28T08:51:00.213Z,5.22
2022-09-28T08:54:12.109Z,5.45
2022-09-28T08:56:55.600Z,5.10
2022-09-28T08:59:30.345Z,5.03
2022-09-28T09:02:19.755Z,4.88
2022-09-28T09:04:49.946Z,4.78
2022-09-28T09:07:48.477Z,4.70
2022-09-28T09:10:52.831Z,5.15
2022-09-28T09:13:53.320Z,4.65
2022-09-28T09:16:37.913Z,4.15
2022-09-28T09:19:47.039Z,3.95
2022-09-28T09:22:46.347Z,4.22
2022-09-28T09:25:22.686Z,4.40
2022-09-28T09:28:18.840Z,4.50
2022-09-28T09:30:58.510Z,3.78
2022-09-28T09:34:02.769Z,3.95
2022-09-28T09:37:12.041Z,3.30
2022-09-28T09:40:11.152Z,2.90
2022-09-28T09:43:19.491Z,2.58
2022-09-28T09:46:14.979Z,3.35
2022-09-28T09:49:10.182Z,3.40
2022-09-28T09:51:47.068Z,3.60
2022-09-28T09:54:25.105Z,3.72
2022-09-28T09:57:00.787Z,3.38
2022-09-28T10:00:04.401Z,3.53
2022-09-28T10:03:02.429Z,3.80
2022-09-28T10:05:45.001Z,3.50
2022-09-28T10:08:19.225Z,4.53
2022-09-28T10:10:52.861Z,4.03
2022-09-28T10:13:24.538Z,3.90
2022-09-28T10:15:57.196Z,4.18
2022-09-28T10:18:38.994Z,3.95
2022-09-28T10:21:27.012Z,3.67
2022-09-28T10:24:26.276Z,3.85
2022-09-28T10:26:57.328Z,3.83
2022-09-28T10:29:33.092Z,3.70
2022-09-28T10:32:20.174Z,3.85
2022-09-28T10:34:51.026Z,3.85
2022-09-28T10:37:24.142Z,3.70
2022-09-28T10:40:32.703Z,3.50
2022-09-28T10:43:09.096Z,4.40
2022-09-28T10:45:40.738Z,3.60
2022-09-28T10:48:21.368Z,3.90
2022-09-28T10:51:05.291Z,3.70
2022-09-28T10:53:37.528Z,3.90
2022-09-28T10:56:21.850Z,4.00
2022-09-28T10:58:56.131Z,3.92
2022-09-28T11:01:35.555Z,3.80
2022-09-28T11:04:08.222Z,3.90
2022-09-28T11:06:41.836Z,3.83
2022-09-28T11:09:30.588Z,3.65
2022-09-28T11:12:07.629Z,4.32
2022-09-28T11:14:42.724Z,4.35
2022-09-28T11:17:29.376Z,3.78
2022-09-28T11:20:02.376Z,4.13
2022-09-28T11:22:41.991Z,3.78
2022-09-28T11:25:24.496Z,3.53
2022-09-28T11:28:00.668Z,3.72
2022-09-28T11:30:34.916Z,3.50
2022-09-28T11:33:31.589Z,3.80
2022-09-28T11:36:41.665Z,4.10
2022-09-28T11:39:17.947Z,4.27
2022-09-28T11:42:10.999Z,3.92
2022-09-28T11:44:48.116Z,4.03
2022-09-28T11:47:50.653Z,4.18
2022-09-28T11:50:33.910Z,4.00
2022-09-28T11:53:19.019Z,4.70
2022-09-28T11:55:58.454Z,4.60
2022-09-28T11:58:34.316Z,4.60
2022-09-28T12:01:09.897Z,4.50
2022-09-28T12:04:05.115Z,3.92
2022-09-28T12:06:45.349Z,4.90
2022-09-28T12:09:26.266Z,4.68
2022-09-28T12:12:06.325Z,4.97
2022-09-28T12:14:48.603Z,3.80
2022-09-28T12:17:25.824Z,3.80
2022-09-28T12:20:02.662Z,4.00
2022-09-28T12:22:38.228Z,3.58
2022-09-28T12:25:15.577Z,3.58
2022-09-28T12:30:22.318Z,4.03
2022-09-28T12:32:56.512Z,3.65
2022-09-28T12:35:41.951Z,4.43
2022-09-28T12:38:32.137Z,3.40
2022-09-28T12:41:16.780Z,4.10
2022-09-28T12:44:08.573Z,4.45
2022-09-28T12:47:05.535Z,3.85
2022-09-28T12:50:37.012Z,4.60
2022-09-28T12:52:47.764Z,3.88
2022-09-28T12:55:51.728Z,3.53
2022-09-28T12:58:40.091Z,3.30
2022-09-28T13:01:29.746Z,3.80
2022-09-28T13:04:32.469Z,3.22
2022-09-28T13:07:07.045Z,3.40
2022-09-28T13:09:48.649Z,2.90
2022-09-28T13:12:48.238Z,3.10
2022-09-28T13:15:44.922Z,3.22
2022-09-28T13:18:22.875Z,2.85
2022-09-28T13:21:06.837Z,2.65
2022-09-28T13:23:41.361Z,2.05
2022-09-28T13:26:22.481Z,1.70
2022-09-28T13:28:55.795Z,1.98
2022-09-28T13:31:33.175Z,1.98
2022-09-28T13:34:07.216Z,1.60
2022-09-28T13:36:41.015Z,1.85
2022-09-28T13:39:39.278Z,1.65
2022-09-28T13:42:10.793Z,2.33
2022-09-28T13:45:35.933Z,2.15
2022-09-28T13:48:15.800Z,1.77
2022-09-28T13:51:19.889Z,1.92
2022-09-28T13:54:06.956Z,2.22
2022-09-28T13:56:49.218Z,2.27
2022-09-28T13:59:27.277Z,2.08
2022-09-28T14:02:07.189Z,1.80
2022-09-28T14:05:06.928Z,1.90
2022-09-28T14:08:11.289Z,1.90
2022-09-28T14:10:52.798Z,1.92
2022-09-28T14:14:01.652Z,2.00
2022-09-28T14:16:33.848Z,1.80
2022-09-28T14:19:09.595Z,1.90
2022-09-28T14:22:08.150Z,2.35
2022-09-28T14:24:56.638Z,1.90
2022-09-28T14:28:00.300Z,1.70
2022-09-28T14:30:49.455Z,2.00
2022-09-28T14:33:26.654Z,1.98
2022-09-28T14:35:59.055Z,1.77
2022-09-28T14:38:51.035Z,1.98
2022-09-28T14:41:34.557Z,2.17
2022-09-28T14:44:09.151Z,2.65
2022-09-28T14:46:45.568Z,2.17
2022-09-28T14:49:51.373Z,2.00
2022-09-28T14:52:41.876Z,2.00
2022-09-28T14:55:20.688Z,2.00
2022-09-28T14:57:56.603Z,2.15
2022-09-28T15:00:32.013Z,2.33
2022-09-28T15:03:10.211Z,2.10
2022-09-28T15:05:47.181Z,2.20
2022-09-28T15:08:18.062Z,2.25
2022-09-28T15:10:50.525Z,2.13
2022-09-28T15:13:25.197Z,2.10
2022-09-28T15:16:00.959Z,2.47
2022-09-28T15:19:04.681Z,2.10
2022-09-28T15:21:42.570Z,1.95
2022-09-28T15:24:34.428Z,2.20
2022-09-28T15:27:16.174Z,2.30
2022-09-28T15:29:58.513Z,2.15
2022-09-28T15:32:28.709Z,2.33
2022-09-28T15:34:58.565Z,2.15
2022-09-28T15:37:39.591Z,2.38
2022-09-28T15:40:16.786Z,2.60
2022-09-28T15:42:47.620Z,1.80
2022-09-28T15:45:30.765Z,2.10
2022-09-28T15:48:21.602Z,1.98
2022-09-28T15:51:02.298Z,1.75
2022-09-28T15:53:31.407Z,2.10
2022-09-28T15:56:10.161Z,2.20
2022-09-28T15:58:41.468Z,2.83
2022-09-28T16:01:36.490Z,2.35
2022-09-28T16:04:41.127Z,2.00
2022-09-28T16:07:39.642Z,2.08
2022-09-28T16:13:18.659Z,2.22
2022-09-28T16:15:59.959Z,2.35
2022-09-28T16:18:35.707Z,2.80
2022-09-28T16:21:39.202Z,2.72
2022-09-28T16:24:10.200Z,2.47
2022-09-28T16:26:39.914Z,3.30
2022-09-28T16:29:26.182Z,2.83
2022-09-28T16:31:56.729Z,2.80
2022-09-28T16:34:28.697Z,2.70
2022-09-28T16:36:57.717Z,2.90
2022-09-28T16:39:26.817Z,3.50
2022-09-28T16:42:01.990Z,3.70
2022-09-28T16:44:32.834Z,3.17
2022-09-28T16:47:04.043Z,3.30
2022-09-28T16:49:36.029Z,3.28
2022-09-28T16:52:05.165Z,3.75
2022-09-28T16:54:54.560Z,4.30
2022-09-28T16:57:23.846Z,3.92
2022-09-28T16:59:57.557Z,4.10
2022-09-28T17:02:46.286Z,3.58
2022-09-28T17:05:16.901Z,4.18
2022-09-28T17:07:46.530Z,4.07
2022-09-28T17:10:25.405Z,4.90
2022-09-28T17:12:59.531Z,16.73
2022-09-28T17:15:29.836Z,15.98
2022-09-28T17:18:00.477Z,23.92
2022-09-28T17:20:31.499Z,5.82
2022-09-28T17:23:03.273Z,7.80
2022-09-28T17:25:32.549Z,5.50
2022-09-28T17:28:02.452Z,5.18
2022-09-28T17:30:31.550Z,5.38
2022-09-28T17:33:02.080Z,4.18
2022-09-28T17:35:32.518Z,4.32
2022-09-28T17:38:03.333Z,3.97
2022-09-28T17:40:34.808Z,4.10
2022-09-28T17:43:05.769Z,3.53
2022-09-28T17:45:38.964Z,5.60
2022-09-28T17:48:15.809Z,6.72
2022-09-28T17:50:47.532Z,4.38
2022-09-28T17:53:17.043Z,5.70
2022-09-28T17:55:46.275Z,4.63
2022-09-28T17:58:24.096Z,5.22
2022-09-28T18:00:53.878Z,4.80
2022-09-28T18:03:27.081Z,4.35
2022-09-28T18:06:06.830Z,4.97
2022-09-28T18:08:40.093Z,5.10
2022-09-28T18:11:09.328Z,5.13
2022-09-28T18:13:38.887Z,4.80
2022-09-28T18:16:10.376Z,4.82
2022-09-28T18:18:43.518Z,4.70
2022-09-28T18:21:14.487Z,4.63
2022-09-28T18:23:45.290Z,4.63
2022-09-28T18:26:16.086Z,5.28
2022-09-28T18:28:50.241Z,4.82
2022-09-28T18:31:26.287Z,4.55
2022-09-28T18:34:02.216Z,5.15
2022-09-28T18:36:49.217Z,4.05
2022-09-28T18:39:19.934Z,6.88
2022-09-28T18:41:49.524Z,8.80
2022-09-28T18:44:23.361Z,9.90
2022-09-28T18:46:52.734Z,13.65
2022-09-28T18:49:25.706Z,18.92
2022-09-28T18:51:55.499Z,13.95
2022-09-28T18:54:25.416Z,12.95
2022-09-28T18:57:03.149Z,11.07
2022-09-28T18:59:32.770Z,10.13
2022-09-28T19:02:02.724Z,8.80
2022-09-28T19:04:46.473Z,8.77
2022-09-28T19:07:16.955Z,9.10
2022-09-28T19:09:47.029Z,9.88
2022-09-28T19:12:16.561Z,7.63
2022-09-28T19:14:46.099Z,4.70
2022-09-28T19:17:15.489Z,5.30
2022-09-28T19:19:46.459Z,4.80
2022-09-28T19:22:16.165Z,6.00
2022-09-28T19:24:46.147Z,5.88
2022-09-28T19:27:15.901Z,7.05
2022-09-28T19:29:47.575Z,6.38
2022-09-28T19:32:17.398Z,6.07
2022-09-28T19:34:48.689Z,5.82
2022-09-28T19:37:17.826Z,5.60
2022-09-28T19:39:46.813Z,6.28
2022-09-28T19:42:16.064Z,4.85
2022-09-28T19:44:48.160Z,5.40
2022-09-28T19:47:18.809Z,6.65
2022-09-28T19:49:49.795Z,8.80
2022-09-28T19:52:18.868Z,5.93
2022-09-28T19:54:56.970Z,5.50
2022-09-28T19:57:27.796Z,4.80
2022-09-28T20:00:02.139Z,5.20
2022-09-28T20:02:34.584Z,6.22
2022-09-28T20:05:05.779Z,5.68
2022-09-28T20:07:36.245Z,5.75
2022-09-28T20:10:08.928Z,5.32
2022-09-28T20:12:38.330Z,5.20
2022-09-28T20:15:13.491Z,5.63
2022-09-28T20:17:42.619Z,4.95
2022-09-28T20:20:15.073Z,4.65
2022-09-28T20:22:44.459Z,4.68
2022-09-28T20:25:13.515Z,5.43
2022-09-28T20:27:42.732Z,5.38
2022-09-28T20:30:13.796Z,4.90
2022-09-28T20:32:49.406Z,4.90
2022-09-28T20:35:32.211Z,5.63
2022-09-28T20:38:08.194Z,7.25
2022-09-28T20:40:37.726Z,6.30
2022-09-28T20:43:07.290Z,6.47
2022-09-28T20:45:37.525Z,5.47
2022-09-28T20:48:08.129Z,6.32
2022-09-28T20:50:38.623Z,5.38
2022-09-28T20:53:07.808Z,6.28
2022-09-28T20:55:36.896Z,5.28
2022-09-28T20:58:06.829Z,5.72
2022-09-28T21:00:36.540Z,6.13
2022-09-28T21:03:05.734Z,6.53
2022-09-28T21:05:38.443Z,7.15
2022-09-28T21:08:07.579Z,6.78
2022-09-28T21:10:36.539Z,6.20
2022-09-28T21:13:07.690Z,6.68
2022-09-28T21:15:39.677Z,7.18
2022-09-28T21:18:11.560Z,5.75
2022-09-28T21:20:47.481Z,6.95
2022-09-28T21:23:17.801Z,6.05
2022-09-28T21:25:48.777Z,5.90
2022-09-28T21:28:18.849Z,6.60
2022-09-28T21:30:48.108Z,6.55
2022-09-28T21:33:17.299Z,5.20
2022-09-28T21:35:47.782Z,5.88
2022-09-28T21:38:19.892Z,6.35
2022-09-28T21:40:49.173Z,5.32
2022-09-28T21:43:21.139Z,6.60
2022-09-28T21:45:53.316Z,6.65
2022-09-28T21:48:29.385Z,5.68
2022-09-28T21:51:01.874Z,6.10
2022-09-28T21:53:33.016Z,5.88
2022-09-28T21:56:04.002Z,6.63
2022-09-28T21:58:35.450Z,5.68
2022-09-28T22:01:11.121Z,6.05
2022-09-28T22:03:40.458Z,6.30
2022-09-28T22:06:11.542Z,5.85
2022-09-28T22:08:41.052Z,6.22
2022-09-28T22:11:13.224Z,6.13
2022-09-28T22:13:45.428Z,5.45
2022-09-28T22:16:16.261Z,6.32
2022-09-28T22:18:46.138Z,5.70
2022-09-28T22:21:19.715Z,6.05
2022-09-28T22:23:49.847Z,5.88
2022-09-28T22:26:22.828Z,6.07
2022-09-28T22:28:54.801Z,5.65
2022-09-28T22:31:29.229Z,6.50
2022-09-28T22:33:59.328Z,5.93
2022-09-28T22:36:30.569Z,5.90
2022-09-28T22:39:00.531Z,6.45
2022-09-28T22:41:30.099Z,6.80
2022-09-28T22:43:59.742Z,5.80
2022-09-28T22:46:32.307Z,7.22
2022-09-28T22:49:02.253Z,6.18
2022-09-28T22:51:33.543Z,6.28
2022-09-28T22:54:04.990Z,6.43
2022-09-28T22:56:36.942Z,6.60
2022-09-28T22:59:06.093Z,6.22
2022-09-28T23:01:35.863Z,6.28
2022-09-28T23:04:05.155Z,6.15
2022-09-28T23:06:35.641Z,6.28
2022-09-28T23:09:07.961Z,6.90
2022-09-28T23:11:37.457Z,5.97
2022-09-28T23:14:06.689Z,6.78
2022-09-28T23:16:35.767Z,6.05
2022-09-28T23:19:07.472Z,6.30
2022-09-28T23:21:38.529Z,6.38
2022-09-28T23:24:07.795Z,7.20
2022-09-28T23:26:37.045Z,6.68
2022-09-28T23:29:06.150Z,7.43
2022-09-28T23:31:35.869Z,6.65
2022-09-28T23:34:07.604Z,6.68
2022-09-28T23:36:38.096Z,6.70
2022-09-28T23:39:13.796Z,6.57
2022-09-28T23:41:42.852Z,7.20
2022-09-28T23:44:11.907Z,6.47
2022-09-28T23:46:40.972Z,6.63
2022-09-28T23:49:10.253Z,6.85
2022-09-28T23:51:40.773Z,7.22
2022-09-28T23:54:09.928Z,6.65
2022-09-28T23:56:39.060Z,5.90
2022-09-28T23:59:08.742Z,6.38
